sensor_id;sensor_type;location;lat;lon;timestamp;temperature;humidity
45104;DHT22;30865;51.288;4.572;2022-12-18T00:02:13;-5.90;89.30
45104;DHT22;30865;51.288;4.572;2022-12-18T00:04:38;-5.90;89.50
45104;DHT22;30865;51.288;4.572;2022-12-18T00:07:04;-5.80;89.10
45104;DHT22;30865;51.288;4.572;2022-12-18T00:09:29;-5.80;88.80
45104;DHT22;30865;51.288;4.572;2022-12-18T00:11:55;-5.80;88.40
45104;DHT22;30865;51.288;4.572;2022-12-18T00:14:20;-5.80;87.80
45104;DHT22;30865;51.288;4.572;2022-12-18T00:16:46;-5.90;87.70
45104;DHT22;30865;51.288;4.572;2022-12-18T00:19:13;-6.00;88.20
45104;DHT22;30865;51.288;4.572;2022-12-18T00:21:40;-6.00;89.50
45104;DHT22;30865;51.288;4.572;2022-12-18T00:24:07;-6.00;89.00
45104;DHT22;30865;51.288;4.572;2022-12-18T00:26:34;-6.10;89.10
45104;DHT22;30865;51.288;4.572;2022-12-18T00:29:07;-6.00;88.30
45104;DHT22;30865;51.288;4.572;2022-12-18T00:31:33;-6.10;88.40
45104;DHT22;30865;51.288;4.572;2022-12-18T00:33:59;-6.20;88.80
45104;DHT22;30865;51.288;4.572;2022-12-18T00:36:28;-6.20;89.20
45104;DHT22;30865;51.288;4.572;2022-12-18T00:38:54;-6.10;89.30
45104;DHT22;30865;51.288;4.572;2022-12-18T00:41:21;-6.10;89.20
45104;DHT22;30865;51.288;4.572;2022-12-18T00:44:07;-6.10;88.80
45104;DHT22;30865;51.288;4.572;2022-12-18T00:46:33;-6.10;89.10
45104;DHT22;30865;51.288;4.572;2022-12-18T00:48:58;-6.10;89.10
45104;DHT22;30865;51.288;4.572;2022-12-18T00:51:25;-6.10;89.40
45104;DHT22;30865;51.288;4.572;2022-12-18T00:53:51;-6.00;89.30
45104;DHT22;30865;51.288;4.572;2022-12-18T00:56:17;-6.10;89.00
45104;DHT22;30865;51.288;4.572;2022-12-18T00:58:43;-6.10;89.20
45104;DHT22;30865;51.288;4.572;2022-12-18T01:01:08;-6.10;89.00
45104;DHT22;30865;51.288;4.572;2022-12-18T01:03:34;-6.10;89.10
45104;DHT22;30865;51.288;4.572;2022-12-18T01:06:04;-6.10;89.40
45104;DHT22;30865;51.288;4.572;2022-12-18T01:08:30;-6.10;89.40
45104;DHT22;30865;51.288;4.572;2022-12-18T01:10:55;-6.10;89.10
45104;DHT22;30865;51.288;4.572;2022-12-18T01:13:21;-6.20;88.80
45104;DHT22;30865;51.288;4.572;2022-12-18T01:15:50;-6.30;88.80
45104;DHT22;30865;51.288;4.572;2022-12-18T01:18:16;-6.50;89.00
45104;DHT22;30865;51.288;4.572;2022-12-18T01:20:41;-6.40;89.80
45104;DHT22;30865;51.288;4.572;2022-12-18T01:23:07;-6.30;89.20
45104;DHT22;30865;51.288;4.572;2022-12-18T01:25:32;-6.30;89.00
45104;DHT22;30865;51.288;4.572;2022-12-18T01:27:58;-6.40;89.20
45104;DHT22;30865;51.288;4.572;2022-12-18T01:30:23;-6.40;89.20
45104;DHT22;30865;51.288;4.572;2022-12-18T01:32:49;-6.40;89.20
45104;DHT22;30865;51.288;4.572;2022-12-18T01:35:15;-6.40;88.90
45104;DHT22;30865;51.288;4.572;2022-12-18T01:37:40;-6.40;88.90
45104;DHT22;30865;51.288;4.572;2022-12-18T01:40:06;-6.40;89.00
45104;DHT22;30865;51.288;4.572;2022-12-18T01:42:32;-6.50;89.00
45104;DHT22;30865;51.288;4.572;2022-12-18T01:45:05;-6.50;89.00
45104;DHT22;30865;51.288;4.572;2022-12-18T01:50:06;-6.50;89.00
45104;DHT22;30865;51.288;4.572;2022-12-18T01:52:33;-6.40;89.90
45104;DHT22;30865;51.288;4.572;2022-12-18T01:55:00;-6.40;88.70
45104;DHT22;30865;51.288;4.572;2022-12-18T01:57:27;-6.50;88.50
45104;DHT22;30865;51.288;4.572;2022-12-18T01:59:59;-6.60;88.90
45104;DHT22;30865;51.288;4.572;2022-12-18T02:02:27;-6.50;89.00
45104;DHT22;30865;51.288;4.572;2022-12-18T02:04:54;-6.50;89.10
45104;DHT22;30865;51.288;4.572;2022-12-18T02:10:08;-6.50;88.80
45104;DHT22;30865;51.288;4.572;2022-12-18T02:12:48;-6.50;89.50
45104;DHT22;30865;51.288;4.572;2022-12-18T02:18:27;-6.40;88.00
45104;DHT22;30865;51.288;4.572;2022-12-18T02:20:59;-6.40;88.20
45104;DHT22;30865;51.288;4.572;2022-12-18T02:26:30;-6.50;88.60
45104;DHT22;30865;51.288;4.572;2022-12-18T02:29:04;-6.50;88.40
45104;DHT22;30865;51.288;4.572;2022-12-18T02:31:36;-6.50;87.90
45104;DHT22;30865;51.288;4.572;2022-12-18T02:34:04;-6.50;87.50
45104;DHT22;30865;51.288;4.572;2022-12-18T02:36:33;-6.40;87.70
45104;DHT22;30865;51.288;4.572;2022-12-18T02:39:00;-6.30;86.90
45104;DHT22;30865;51.288;4.572;2022-12-18T02:41:27;-6.20;87.00
45104;DHT22;30865;51.288;4.572;2022-12-18T02:43:57;-6.30;86.20
45104;DHT22;30865;51.288;4.572;2022-12-18T02:46:30;-6.30;86.10
45104;DHT22;30865;51.288;4.572;2022-12-18T02:49:05;-6.30;86.10
45104;DHT22;30865;51.288;4.572;2022-12-18T02:51:52;-6.30;85.90
45104;DHT22;30865;51.288;4.572;2022-12-18T02:54:32;-6.30;86.10
45104;DHT22;30865;51.288;4.572;2022-12-18T02:57:20;-6.30;85.50
45104;DHT22;30865;51.288;4.572;2022-12-18T03:02:38;-6.30;85.00
45104;DHT22;30865;51.288;4.572;2022-12-18T03:05:21;-6.30;85.70
45104;DHT22;30865;51.288;4.572;2022-12-18T03:08:03;-6.30;85.70
45104;DHT22;30865;51.288;4.572;2022-12-18T03:10:32;-6.30;85.50
45104;DHT22;30865;51.288;4.572;2022-12-18T03:13:14;-6.30;85.00
45104;DHT22;30865;51.288;4.572;2022-12-18T03:15:53;-6.40;85.30
45104;DHT22;30865;51.288;4.572;2022-12-18T03:18:25;-6.40;85.50
45104;DHT22;30865;51.288;4.572;2022-12-18T03:20:53;-6.40;85.80
45104;DHT22;30865;51.288;4.572;2022-12-18T03:23:24;-6.50;85.20
45104;DHT22;30865;51.288;4.572;2022-12-18T03:25:54;-6.60;84.90
45104;DHT22;30865;51.288;4.572;2022-12-18T03:28:22;-6.60;85.60
45104;DHT22;30865;51.288;4.572;2022-12-18T03:30:51;-6.40;86.00
45104;DHT22;30865;51.288;4.572;2022-12-18T03:33:24;-6.50;85.10
45104;DHT22;30865;51.288;4.572;2022-12-18T03:35:51;-6.50;84.60
45104;DHT22;30865;51.288;4.572;2022-12-18T03:38:16;-6.50;83.90
45104;DHT22;30865;51.288;4.572;2022-12-18T03:46:28;-6.70;84.30
45104;DHT22;30865;51.288;4.572;2022-12-18T03:49:21;-6.70;85.60
45104;DHT22;30865;51.288;4.572;2022-12-18T03:52:06;-6.80;85.60
45104;DHT22;30865;51.288;4.572;2022-12-18T03:54:35;-6.90;86.40
45104;DHT22;30865;51.288;4.572;2022-12-18T03:57:12;-6.90;87.30
45104;DHT22;30865;51.288;4.572;2022-12-18T03:59:40;-7.00;86.50
45104;DHT22;30865;51.288;4.572;2022-12-18T04:02:07;-6.90;87.00
45104;DHT22;30865;51.288;4.572;2022-12-18T04:04:34;-6.90;86.50
45104;DHT22;30865;51.288;4.572;2022-12-18T04:07:01;-6.80;86.40
45104;DHT22;30865;51.288;4.572;2022-12-18T04:09:28;-6.80;85.80
45104;DHT22;30865;51.288;4.572;2022-12-18T04:11:55;-7.00;84.50
45104;DHT22;30865;51.288;4.572;2022-12-18T04:14:20;-6.90;84.50
45104;DHT22;30865;51.288;4.572;2022-12-18T04:16:46;-6.90;85.40
45104;DHT22;30865;51.288;4.572;2022-12-18T04:19:12;-7.00;86.10
45104;DHT22;30865;51.288;4.572;2022-12-18T04:21:37;-7.10;85.10
45104;DHT22;30865;51.288;4.572;2022-12-18T04:24:03;-7.10;84.60
45104;DHT22;30865;51.288;4.572;2022-12-18T04:26:28;-7.20;85.10
45104;DHT22;30865;51.288;4.572;2022-12-18T04:28:54;-7.10;85.20
45104;DHT22;30865;51.288;4.572;2022-12-18T04:31:19;-7.20;85.10
45104;DHT22;30865;51.288;4.572;2022-12-18T04:33:45;-7.20;84.80
45104;DHT22;30865;51.288;4.572;2022-12-18T04:36:10;-7.20;84.50
45104;DHT22;30865;51.288;4.572;2022-12-18T04:38:37;-7.20;84.20
45104;DHT22;30865;51.288;4.572;2022-12-18T04:41:03;-7.20;83.60
45104;DHT22;30865;51.288;4.572;2022-12-18T04:43:28;-7.10;83.20
45104;DHT22;30865;51.288;4.572;2022-12-18T04:46:02;-7.20;82.80
45104;DHT22;30865;51.288;4.572;2022-12-18T04:48:27;-7.30;83.40
45104;DHT22;30865;51.288;4.572;2022-12-18T04:50:53;-7.30;83.50
45104;DHT22;30865;51.288;4.572;2022-12-18T04:53:18;-7.30;83.50
45104;DHT22;30865;51.288;4.572;2022-12-18T04:55:44;-7.30;83.50
45104;DHT22;30865;51.288;4.572;2022-12-18T04:58:09;-7.50;83.50
45104;DHT22;30865;51.288;4.572;2022-12-18T05:00:35;-7.50;84.00
45104;DHT22;30865;51.288;4.572;2022-12-18T05:03:01;-7.50;84.00
45104;DHT22;30865;51.288;4.572;2022-12-18T05:05:27;-7.40;83.50
45104;DHT22;30865;51.288;4.572;2022-12-18T05:07:53;-7.40;83.30
45104;DHT22;30865;51.288;4.572;2022-12-18T05:10:18;-7.50;82.20
45104;DHT22;30865;51.288;4.572;2022-12-18T05:12:44;-7.60;81.90
45104;DHT22;30865;51.288;4.572;2022-12-18T05:15:26;-7.70;81.80
45104;DHT22;30865;51.288;4.572;2022-12-18T05:17:52;-7.70;82.30
45104;DHT22;30865;51.288;4.572;2022-12-18T05:20:18;-7.70;82.20
45104;DHT22;30865;51.288;4.572;2022-12-18T05:22:43;-7.70;81.50
45104;DHT22;30865;51.288;4.572;2022-12-18T05:25:09;-7.80;82.50
45104;DHT22;30865;51.288;4.572;2022-12-18T05:27:35;-7.70;82.20
45104;DHT22;30865;51.288;4.572;2022-12-18T05:30:00;-7.80;80.70
45104;DHT22;30865;51.288;4.572;2022-12-18T05:32:26;-7.80;81.20
45104;DHT22;30865;51.288;4.572;2022-12-18T05:34:51;-7.70;81.50
45104;DHT22;30865;51.288;4.572;2022-12-18T05:37:17;-7.80;81.10
45104;DHT22;30865;51.288;4.572;2022-12-18T05:39:43;-7.90;81.80
45104;DHT22;30865;51.288;4.572;2022-12-18T05:42:09;-7.80;81.70
45104;DHT22;30865;51.288;4.572;2022-12-18T05:44:35;-7.90;81.40
45104;DHT22;30865;51.288;4.572;2022-12-18T05:47:00;-7.80;81.70
45104;DHT22;30865;51.288;4.572;2022-12-18T05:49:26;-7.80;82.00
45104;DHT22;30865;51.288;4.572;2022-12-18T05:51:52;-7.80;81.30
45104;DHT22;30865;51.288;4.572;2022-12-18T05:54:17;-7.90;80.80
45104;DHT22;30865;51.288;4.572;2022-12-18T05:56:43;-7.90;81.10
45104;DHT22;30865;51.288;4.572;2022-12-18T05:59:08;-8.00;81.00
45104;DHT22;30865;51.288;4.572;2022-12-18T06:01:34;-8.00;81.70
45104;DHT22;30865;51.288;4.572;2022-12-18T06:03:59;-8.00;81.70
45104;DHT22;30865;51.288;4.572;2022-12-18T06:06:27;-7.90;81.40
45104;DHT22;30865;51.288;4.572;2022-12-18T06:08:53;-8.00;80.80
45104;DHT22;30865;51.288;4.572;2022-12-18T06:11:21;-8.00;81.10
45104;DHT22;30865;51.288;4.572;2022-12-18T06:13:52;-7.90;80.90
45104;DHT22;30865;51.288;4.572;2022-12-18T06:16:18;-8.00;80.40
45104;DHT22;30865;51.288;4.572;2022-12-18T06:18:44;-8.00;80.50
45104;DHT22;30865;51.288;4.572;2022-12-18T06:21:09;-8.00;80.20
45104;DHT22;30865;51.288;4.572;2022-12-18T06:23:35;-8.00;81.10
45104;DHT22;30865;51.288;4.572;2022-12-18T06:26:09;-8.00;80.60
45104;DHT22;30865;51.288;4.572;2022-12-18T06:28:35;-8.00;80.30
45104;DHT22;30865;51.288;4.572;2022-12-18T06:31:03;-8.00;80.00
45104;DHT22;30865;51.288;4.572;2022-12-18T06:33:28;-8.00;80.20
45104;DHT22;30865;51.288;4.572;2022-12-18T06:35:54;-8.00;79.60
45104;DHT22;30865;51.288;4.572;2022-12-18T06:38:20;-8.10;79.70
45104;DHT22;30865;51.288;4.572;2022-12-18T06:40:45;-8.10;79.80
45104;DHT22;30865;51.288;4.572;2022-12-18T06:43:11;-8.10;79.60
45104;DHT22;30865;51.288;4.572;2022-12-18T06:45:36;-8.10;79.60
45104;DHT22;30865;51.288;4.572;2022-12-18T06:48:02;-8.20;79.60
45104;DHT22;30865;51.288;4.572;2022-12-18T06:50:27;-8.20;79.50
45104;DHT22;30865;51.288;4.572;2022-12-18T06:52:53;-8.30;79.70
45104;DHT22;30865;51.288;4.572;2022-12-18T06:55:19;-8.40;79.90
45104;DHT22;30865;51.288;4.572;2022-12-18T06:57:44;-8.50;80.60
45104;DHT22;30865;51.288;4.572;2022-12-18T07:00:10;-8.60;81.20
45104;DHT22;30865;51.288;4.572;2022-12-18T07:02:36;-8.40;80.80
45104;DHT22;30865;51.288;4.572;2022-12-18T07:05:01;-8.50;80.50
45104;DHT22;30865;51.288;4.572;2022-12-18T07:07:27;-8.60;81.00
45104;DHT22;30865;51.288;4.572;2022-12-18T07:09:52;-8.60;81.20
45104;DHT22;30865;51.288;4.572;2022-12-18T07:12:18;-8.50;81.30
45104;DHT22;30865;51.288;4.572;2022-12-18T07:14:44;-8.40;80.20
45104;DHT22;30865;51.288;4.572;2022-12-18T07:17:09;-8.60;80.10
45104;DHT22;30865;51.288;4.572;2022-12-18T07:19:35;-8.60;80.80
45104;DHT22;30865;51.288;4.572;2022-12-18T07:22:00;-8.50;80.70
45104;DHT22;30865;51.288;4.572;2022-12-18T07:24:26;-8.30;81.50
45104;DHT22;30865;51.288;4.572;2022-12-18T07:26:52;-8.20;80.60
45104;DHT22;30865;51.288;4.572;2022-12-18T07:29:17;-8.10;79.80
45104;DHT22;30865;51.288;4.572;2022-12-18T07:31:43;-8.20;79.10
45104;DHT22;30865;51.288;4.572;2022-12-18T07:34:13;-8.10;79.40
45104;DHT22;30865;51.288;4.572;2022-12-18T07:36:39;-8.10;79.50
45104;DHT22;30865;51.288;4.572;2022-12-18T07:39:04;-8.10;79.70
45104;DHT22;30865;51.288;4.572;2022-12-18T07:41:30;-8.10;78.70
45104;DHT22;30865;51.288;4.572;2022-12-18T07:43:55;-8.00;79.20
45104;DHT22;30865;51.288;4.572;2022-12-18T07:46:20;-8.10;78.80
45104;DHT22;30865;51.288;4.572;2022-12-18T07:48:46;-8.10;78.50
45104;DHT22;30865;51.288;4.572;2022-12-18T07:51:12;-8.20;78.90
45104;DHT22;30865;51.288;4.572;2022-12-18T07:53:37;-8.10;79.50
45104;DHT22;30865;51.288;4.572;2022-12-18T07:56:05;-8.10;79.00
45104;DHT22;30865;51.288;4.572;2022-12-18T07:58:32;-8.00;78.90
45104;DHT22;30865;51.288;4.572;2022-12-18T08:01:06;-8.00;78.50
45104;DHT22;30865;51.288;4.572;2022-12-18T08:03:32;-7.90;78.70
45104;DHT22;30865;51.288;4.572;2022-12-18T08:06:02;-7.80;78.90
45104;DHT22;30865;51.288;4.572;2022-12-18T08:08:28;-7.70;78.40
45104;DHT22;30865;51.288;4.572;2022-12-18T08:10:54;-7.80;78.00
45104;DHT22;30865;51.288;4.572;2022-12-18T08:13:20;-7.80;77.90
45104;DHT22;30865;51.288;4.572;2022-12-18T08:15:46;-7.90;77.90
45104;DHT22;30865;51.288;4.572;2022-12-18T08:18:11;-7.80;78.00
45104;DHT22;30865;51.288;4.572;2022-12-18T08:20:37;-7.80;78.00
45104;DHT22;30865;51.288;4.572;2022-12-18T08:23:02;-7.90;77.90
45104;DHT22;30865;51.288;4.572;2022-12-18T08:25:28;-8.00;77.80
45104;DHT22;30865;51.288;4.572;2022-12-18T08:27:53;-7.90;78.70
45104;DHT22;30865;51.288;4.572;2022-12-18T08:30:20;-7.80;78.80
45104;DHT22;30865;51.288;4.572;2022-12-18T08:32:45;-7.90;78.60
45104;DHT22;30865;51.288;4.572;2022-12-18T08:35:11;-7.90;78.00
45104;DHT22;30865;51.288;4.572;2022-12-18T08:37:37;-7.90;78.50
45104;DHT22;30865;51.288;4.572;2022-12-18T08:40:03;-7.80;78.00
45104;DHT22;30865;51.288;4.572;2022-12-18T08:42:28;-7.80;78.10
45104;DHT22;30865;51.288;4.572;2022-12-18T08:45:20;-7.60;78.20
45104;DHT22;30865;51.288;4.572;2022-12-18T08:47:46;-7.50;77.80
45104;DHT22;30865;51.288;4.572;2022-12-18T08:50:11;-7.50;77.00
45104;DHT22;30865;51.288;4.572;2022-12-18T08:52:37;-7.50;76.90
45104;DHT22;30865;51.288;4.572;2022-12-18T08:55:03;-7.60;76.80
45104;DHT22;30865;51.288;4.572;2022-12-18T08:57:29;-7.50;76.80
45104;DHT22;30865;51.288;4.572;2022-12-18T08:59:54;-7.50;76.70
45104;DHT22;30865;51.288;4.572;2022-12-18T09:02:20;-7.40;77.10
45104;DHT22;30865;51.288;4.572;2022-12-18T09:04:47;-7.40;76.80
45104;DHT22;30865;51.288;4.572;2022-12-18T09:07:13;-7.30;76.70
45104;DHT22;30865;51.288;4.572;2022-12-18T09:09:38;-7.30;76.90
45104;DHT22;30865;51.288;4.572;2022-12-18T09:12:04;-7.30;76.80
45104;DHT22;30865;51.288;4.572;2022-12-18T09:14:29;-7.10;77.10
45104;DHT22;30865;51.288;4.572;2022-12-18T09:16:55;-7.10;77.00
45104;DHT22;30865;51.288;4.572;2022-12-18T09:19:20;-6.90;77.30
45104;DHT22;30865;51.288;4.572;2022-12-18T09:21:46;-6.80;76.50
45104;DHT22;30865;51.288;4.572;2022-12-18T09:24:12;-6.70;76.20
45104;DHT22;30865;51.288;4.572;2022-12-18T09:26:38;-6.70;75.90
45104;DHT22;30865;51.288;4.572;2022-12-18T09:29:04;-6.70;76.60
45104;DHT22;30865;51.288;4.572;2022-12-18T09:31:30;-6.50;76.40
45104;DHT22;30865;51.288;4.572;2022-12-18T09:33:55;-6.40;76.00
45104;DHT22;30865;51.288;4.572;2022-12-18T09:36:21;-6.40;75.70
45104;DHT22;30865;51.288;4.572;2022-12-18T09:38:47;-6.40;75.30
45104;DHT22;30865;51.288;4.572;2022-12-18T09:44:13;-6.30;75.50
45104;DHT22;30865;51.288;4.572;2022-12-18T09:46:45;-6.20;75.60
45104;DHT22;30865;51.288;4.572;2022-12-18T09:49:15;-6.10;75.70
45104;DHT22;30865;51.288;4.572;2022-12-18T09:51:52;-6.00;75.20
45104;DHT22;30865;51.288;4.572;2022-12-18T09:54:28;-6.10;74.70
45104;DHT22;30865;51.288;4.572;2022-12-18T09:56:55;-6.00;76.70
45104;DHT22;30865;51.288;4.572;2022-12-18T09:59:24;-5.80;76.50
45104;DHT22;30865;51.288;4.572;2022-12-18T10:01:51;-5.60;76.00
45104;DHT22;30865;51.288;4.572;2022-12-18T10:04:16;-5.40;75.50
45104;DHT22;30865;51.288;4.572;2022-12-18T10:07:06;-5.50;75.10
45104;DHT22;30865;51.288;4.572;2022-12-18T10:09:58;-5.50;75.00
45104;DHT22;30865;51.288;4.572;2022-12-18T10:13:09;-5.50;75.30
45104;DHT22;30865;51.288;4.572;2022-12-18T10:21:12;-5.30;75.60
45104;DHT22;30865;51.288;4.572;2022-12-18T10:23:59;-5.00;75.60
45104;DHT22;30865;51.288;4.572;2022-12-18T10:26:27;-4.80;75.60
45104;DHT22;30865;51.288;4.572;2022-12-18T10:28:53;-4.50;75.30
45104;DHT22;30865;51.288;4.572;2022-12-18T10:31:21;-4.30;74.20
45104;DHT22;30865;51.288;4.572;2022-12-18T10:33:48;-4.20;74.10
45104;DHT22;30865;51.288;4.572;2022-12-18T10:36:13;-4.00;73.50
45104;DHT22;30865;51.288;4.572;2022-12-18T10:38:39;-4.10;72.70
45104;DHT22;30865;51.288;4.572;2022-12-18T10:41:27;-4.30;73.70
45104;DHT22;30865;51.288;4.572;2022-12-18T10:44:16;-4.10;74.20
45104;DHT22;30865;51.288;4.572;2022-12-18T10:46:48;-3.90;74.20
45104;DHT22;30865;51.288;4.572;2022-12-18T10:49:33;-3.70;73.70
45104;DHT22;30865;51.288;4.572;2022-12-18T10:52:20;-3.50;72.80
45104;DHT22;30865;51.288;4.572;2022-12-18T10:54:52;-3.40;73.30
45104;DHT22;30865;51.288;4.572;2022-12-18T10:57:32;-3.20;72.60
45104;DHT22;30865;51.288;4.572;2022-12-18T11:00:03;-3.40;71.90
45104;DHT22;30865;51.288;4.572;2022-12-18T11:02:38;-3.40;72.30
45104;DHT22;30865;51.288;4.572;2022-12-18T11:05:30;-3.20;72.50
45104;DHT22;30865;51.288;4.572;2022-12-18T11:08:02;-3.10;72.40
45104;DHT22;30865;51.288;4.572;2022-12-18T11:10:37;-3.00;72.30
45104;DHT22;30865;51.288;4.572;2022-12-18T11:13:30;-2.90;71.90
45104;DHT22;30865;51.288;4.572;2022-12-18T11:15:57;-2.80;71.80
45104;DHT22;30865;51.288;4.572;2022-12-18T11:18:30;-2.60;72.00
45104;DHT22;30865;51.288;4.572;2022-12-18T11:21:10;-2.70;71.60
45104;DHT22;30865;51.288;4.572;2022-12-18T11:23:37;-2.50;71.80
45104;DHT22;30865;51.288;4.572;2022-12-18T11:26:09;-2.50;72.00
45104;DHT22;30865;51.288;4.572;2022-12-18T11:28:42;-2.30;71.40
45104;DHT22;30865;51.288;4.572;2022-12-18T11:34:11;-2.10;71.20
45104;DHT22;30865;51.288;4.572;2022-12-18T11:36:46;-2.10;71.40
45104;DHT22;30865;51.288;4.572;2022-12-18T11:39:30;-2.10;71.30
45104;DHT22;30865;51.288;4.572;2022-12-18T11:45:17;-2.10;72.20
45104;DHT22;30865;51.288;4.572;2022-12-18T11:47:56;-1.90;72.00
45104;DHT22;30865;51.288;4.572;2022-12-18T11:53:01;-1.90;71.20
45104;DHT22;30865;51.288;4.572;2022-12-18T11:55:37;-1.80;71.40
45104;DHT22;30865;51.288;4.572;2022-12-18T12:00:36;-1.80;72.00
45104;DHT22;30865;51.288;4.572;2022-12-18T12:03:23;-1.70;72.30
45104;DHT22;30865;51.288;4.572;2022-12-18T12:06:13;-1.70;72.50
45104;DHT22;30865;51.288;4.572;2022-12-18T12:09:25;-1.70;72.30
45104;DHT22;30865;51.288;4.572;2022-12-18T12:23:29;-1.40;72.60
45104;DHT22;30865;51.288;4.572;2022-12-18T12:26:09;-1.40;73.30
45104;DHT22;30865;51.288;4.572;2022-12-18T12:28:57;-1.30;72.40
45104;DHT22;30865;51.288;4.572;2022-12-18T12:34:26;-1.20;73.30
45104;DHT22;30865;51.288;4.572;2022-12-18T12:37:18;-1.00;73.30
45104;DHT22;30865;51.288;4.572;2022-12-18T12:39:46;-1.10;73.60
45104;DHT22;30865;51.288;4.572;2022-12-18T12:42:29;-1.10;73.90
45104;DHT22;30865;51.288;4.572;2022-12-18T12:45:23;-1.10;73.30
45104;DHT22;30865;51.288;4.572;2022-12-18T12:47:52;-1.00;73.40
45104;DHT22;30865;51.288;4.572;2022-12-18T12:50:20;-1.00;73.70
45104;DHT22;30865;51.288;4.572;2022-12-18T12:52:57;-0.80;73.50
45104;DHT22;30865;51.288;4.572;2022-12-18T12:55:24;-0.90;72.70
45104;DHT22;30865;51.288;4.572;2022-12-18T12:58:08;-0.70;72.70
45104;DHT22;30865;51.288;4.572;2022-12-18T13:06:02;-0.60;72.20
45104;DHT22;30865;51.288;4.572;2022-12-18T13:08:33;-0.40;71.70
45104;DHT22;30865;51.288;4.572;2022-12-18T13:11:31;-0.50;71.50
45104;DHT22;30865;51.288;4.572;2022-12-18T13:14:27;-0.50;71.80
45104;DHT22;30865;51.288;4.572;2022-12-18T13:17:34;-0.60;72.20
45104;DHT22;30865;51.288;4.572;2022-12-18T13:20:07;-0.40;72.50
45104;DHT22;30865;51.288;4.572;2022-12-18T13:22:42;-0.30;72.10
45104;DHT22;30865;51.288;4.572;2022-12-18T13:25:34;-0.40;71.60
45104;DHT22;30865;51.288;4.572;2022-12-18T13:28:15;-0.40;72.00
45104;DHT22;30865;51.288;4.572;2022-12-18T13:35:40;-0.30;72.10
45104;DHT22;30865;51.288;4.572;2022-12-18T13:41:02;-0.20;72.00
45104;DHT22;30865;51.288;4.572;2022-12-18T13:43:33;-0.20;71.50
45104;DHT22;30865;51.288;4.572;2022-12-18T13:46:04;-0.20;71.30
45104;DHT22;30865;51.288;4.572;2022-12-18T13:48:34;-0.10;72.00
45104;DHT22;30865;51.288;4.572;2022-12-18T13:51:06;0.00;71.10
45104;DHT22;30865;51.288;4.572;2022-12-18T13:53:36;-0.10;71.80
45104;DHT22;30865;51.288;4.572;2022-12-18T13:56:04;-0.20;71.60
45104;DHT22;30865;51.288;4.572;2022-12-18T13:58:30;-0.20;72.20
45104;DHT22;30865;51.288;4.572;2022-12-18T14:00:55;-0.10;72.30
45104;DHT22;30865;51.288;4.572;2022-12-18T14:03:31;-0.10;72.20
45104;DHT22;30865;51.288;4.572;2022-12-18T14:06:01;-0.10;72.30
45104;DHT22;30865;51.288;4.572;2022-12-18T14:08:33;-0.10;72.60
45104;DHT22;30865;51.288;4.572;2022-12-18T14:11:01;-0.10;72.70
45104;DHT22;30865;51.288;4.572;2022-12-18T14:13:31;-0.20;72.70
45104;DHT22;30865;51.288;4.572;2022-12-18T14:15:57;-0.20;72.80
45104;DHT22;30865;51.288;4.572;2022-12-18T14:18:43;-0.30;73.80
45104;DHT22;30865;51.288;4.572;2022-12-18T14:21:27;-0.20;73.50
45104;DHT22;30865;51.288;4.572;2022-12-18T14:24:15;-0.40;74.40
45104;DHT22;30865;51.288;4.572;2022-12-18T14:26:41;-0.40;74.50
45104;DHT22;30865;51.288;4.572;2022-12-18T14:29:24;-0.40;75.10
45104;DHT22;30865;51.288;4.572;2022-12-18T14:32:13;-0.50;75.30
45104;DHT22;30865;51.288;4.572;2022-12-18T14:34:51;-0.40;75.40
45104;DHT22;30865;51.288;4.572;2022-12-18T14:37:24;-0.50;75.30
45104;DHT22;30865;51.288;4.572;2022-12-18T14:39:57;-0.60;76.20
45104;DHT22;30865;51.288;4.572;2022-12-18T14:42:25;-0.60;76.50
45104;DHT22;30865;51.288;4.572;2022-12-18T14:47:58;-0.60;76.80
45104;DHT22;30865;51.288;4.572;2022-12-18T14:50:24;-0.70;77.10
45104;DHT22;30865;51.288;4.572;2022-12-18T14:52:49;-0.80;77.50
45104;DHT22;30865;51.288;4.572;2022-12-18T14:55:17;-0.80;77.90
45104;DHT22;30865;51.288;4.572;2022-12-18T14:57:44;-0.90;78.00
45104;DHT22;30865;51.288;4.572;2022-12-18T15:00:18;-0.90;78.20
45104;DHT22;30865;51.288;4.572;2022-12-18T15:02:47;-0.90;78.20
45104;DHT22;30865;51.288;4.572;2022-12-18T15:05:20;-1.00;78.10
45104;DHT22;30865;51.288;4.572;2022-12-18T15:07:49;-1.10;78.70
45104;DHT22;30865;51.288;4.572;2022-12-18T15:12:44;-1.10;79.20
45104;DHT22;30865;51.288;4.572;2022-12-18T15:20:31;-1.20;79.20
45104;DHT22;30865;51.288;4.572;2022-12-18T15:22:57;-1.40;79.40
45104;DHT22;30865;51.288;4.572;2022-12-18T15:25:34;-1.40;80.10
45104;DHT22;30865;51.288;4.572;2022-12-18T15:28:02;-1.50;80.00
45104;DHT22;30865;51.288;4.572;2022-12-18T15:30:28;-1.40;80.40
45104;DHT22;30865;51.288;4.572;2022-12-18T15:33:20;-1.50;80.30
45104;DHT22;30865;51.288;4.572;2022-12-18T15:35:58;-1.50;81.00
45104;DHT22;30865;51.288;4.572;2022-12-18T15:38:24;-1.60;80.80
45104;DHT22;30865;51.288;4.572;2022-12-18T15:40:50;-1.70;81.20
45104;DHT22;30865;51.288;4.572;2022-12-18T15:43:18;-1.60;80.90
45104;DHT22;30865;51.288;4.572;2022-12-18T15:46:04;-1.60;80.80
45104;DHT22;30865;51.288;4.572;2022-12-18T15:48:33;-1.70;81.10
45104;DHT22;30865;51.288;4.572;2022-12-18T15:50:59;-1.80;81.20
45104;DHT22;30865;51.288;4.572;2022-12-18T15:53:29;-1.70;81.50
45104;DHT22;30865;51.288;4.572;2022-12-18T15:55:55;-1.80;81.60
45104;DHT22;30865;51.288;4.572;2022-12-18T15:58:39;-1.80;81.20
45104;DHT22;30865;51.288;4.572;2022-12-18T16:01:05;-1.90;81.90
45104;DHT22;30865;51.288;4.572;2022-12-18T16:03:32;-1.90;82.40
45104;DHT22;30865;51.288;4.572;2022-12-18T16:05:58;-1.80;82.80
45104;DHT22;30865;51.288;4.572;2022-12-18T16:08:25;-1.80;81.70
45104;DHT22;30865;51.288;4.572;2022-12-18T16:10:51;-1.90;81.50
45104;DHT22;30865;51.288;4.572;2022-12-18T16:13:19;-1.90;81.70
45104;DHT22;30865;51.288;4.572;2022-12-18T16:15:44;-2.00;81.90
45104;DHT22;30865;51.288;4.572;2022-12-18T16:18:10;-2.00;83.10
45104;DHT22;30865;51.288;4.572;2022-12-18T16:20:35;-1.90;83.10
45104;DHT22;30865;51.288;4.572;2022-12-18T16:23:01;-1.70;82.80
45104;DHT22;30865;51.288;4.572;2022-12-18T16:25:30;-1.80;81.50
45104;DHT22;30865;51.288;4.572;2022-12-18T16:27:56;-1.90;81.50
45104;DHT22;30865;51.288;4.572;2022-12-18T16:30:23;-1.80;83.70
45104;DHT22;30865;51.288;4.572;2022-12-18T16:32:50;-1.90;82.10
45104;DHT22;30865;51.288;4.572;2022-12-18T16:35:16;-2.00;82.30
45104;DHT22;30865;51.288;4.572;2022-12-18T16:37:42;-2.10;82.60
45104;DHT22;30865;51.288;4.572;2022-12-18T16:40:10;-2.00;83.60
45104;DHT22;30865;51.288;4.572;2022-12-18T16:42:37;-2.00;83.10
45104;DHT22;30865;51.288;4.572;2022-12-18T16:45:04;-2.00;82.80
45104;DHT22;30865;51.288;4.572;2022-12-18T16:47:30;-2.00;82.50
45104;DHT22;30865;51.288;4.572;2022-12-18T16:49:56;-2.00;82.50
45104;DHT22;30865;51.288;4.572;2022-12-18T16:52:21;-2.00;82.30
45104;DHT22;30865;51.288;4.572;2022-12-18T16:54:47;-2.00;82.40
45104;DHT22;30865;51.288;4.572;2022-12-18T16:57:14;-2.00;82.50
45104;DHT22;30865;51.288;4.572;2022-12-18T16:59:40;-2.00;82.60
45104;DHT22;30865;51.288;4.572;2022-12-18T17:02:15;-2.00;82.50
45104;DHT22;30865;51.288;4.572;2022-12-18T17:04:41;-2.10;82.80
45104;DHT22;30865;51.288;4.572;2022-12-18T17:07:08;-2.10;82.10